Waswanipi, Canada
Current Conditions -  °F | °C
As of 6:00 AM on Thursday 27 Nov 2014 (Local Time) from CYNM Reporting Station
Light Snow Light Snow  
Wind Chill: -15°   Ceiling: 7500
Heat Index:   Visibility: 9mi
Dew Point: -4°   Wind: 8mph
Humidity: 85%   Direction: 340°NNW
Pressure: 30.18"   Gusts: NA
Location:  49.65°N, 76.48°W
Report Text: CYNM 271100Z AUTO 34007KT 9SM -SN BKN075 OVC087 M18/M20 A3018 RMK ICG SLP249
Loading
Personal Weather Stations






























Interactive Weather Map New forecast layout! Learn more

10-Day Weather Forecast

Advertisements
Track Severe Weather on mobile